sensor_id;sensor_type;location;lat;lon;timestamp;temperature;humidity
336;DHT22;156;48.738;9.228;2022-12-11T00:01:16;-1.50;35.20
336;DHT22;156;48.738;9.228;2022-12-11T00:03:43;-1.50;29.20
336;DHT22;156;48.738;9.228;2022-12-11T00:06:13;-1.40;28.20
336;DHT22;156;48.738;9.228;2022-12-11T00:08:40;-1.40;23.90
336;DHT22;156;48.738;9.228;2022-12-11T00:11:08;-1.30;21.80
336;DHT22;156;48.738;9.228;2022-12-11T00:13:35;-1.30;19.50
336;DHT22;156;48.738;9.228;2022-12-11T00:16:02;-1.30;19.10
336;DHT22;156;48.738;9.228;2022-12-11T00:18:28;-1.30;15.40
336;DHT22;156;48.738;9.228;2022-12-11T00:20:59;-1.30;14.00
336;DHT22;156;48.738;9.228;2022-12-11T00:23:27;-1.30;15.30
336;DHT22;156;48.738;9.228;2022-12-11T00:25:54;-1.20;13.00
336;DHT22;156;48.738;9.228;2022-12-11T00:28:21;-1.30;11.50
336;DHT22;156;48.738;9.228;2022-12-11T00:30:48;-1.30;11.10
336;DHT22;156;48.738;9.228;2022-12-11T00:33:15;-1.40;11.40
336;DHT22;156;48.738;9.228;2022-12-11T00:35:44;-1.40;12.60
336;DHT22;156;48.738;9.228;2022-12-11T00:38:14;-1.40;14.00
336;DHT22;156;48.738;9.228;2022-12-11T00:40:43;-1.40;15.30
336;DHT22;156;48.738;9.228;2022-12-11T00:43:10;-1.40;15.10
336;DHT22;156;48.738;9.228;2022-12-11T00:45:39;-1.50;15.30
336;DHT22;156;48.738;9.228;2022-12-11T00:48:06;-1.40;15.60
336;DHT22;156;48.738;9.228;2022-12-11T00:50:34;-1.40;15.40
336;DHT22;156;48.738;9.228;2022-12-11T00:53:02;-1.40;16.10
336;DHT22;156;48.738;9.228;2022-12-11T00:55:29;-1.50;17.50
336;DHT22;156;48.738;9.228;2022-12-11T00:57:57;-1.50;20.30
336;DHT22;156;48.738;9.228;2022-12-11T01:00:24;-1.40;21.60
336;DHT22;156;48.738;9.228;2022-12-11T01:02:51;-1.30;23.30
336;DHT22;156;48.738;9.228;2022-12-11T01:05:18;-1.20;23.10
336;DHT22;156;48.738;9.228;2022-12-11T01:07:44;-1.10;20.60
336;DHT22;156;48.738;9.228;2022-12-11T01:10:12;-1.10;15.40
336;DHT22;156;48.738;9.228;2022-12-11T01:12:54;-1.20;15.30
336;DHT22;156;48.738;9.228;2022-12-11T01:15:24;-1.10;15.50
336;DHT22;156;48.738;9.228;2022-12-11T01:17:51;-1.00;15.50
336;DHT22;156;48.738;9.228;2022-12-11T01:20:19;-1.10;11.00
336;DHT22;156;48.738;9.228;2022-12-11T01:22:46;-1.00;12.90
336;DHT22;156;48.738;9.228;2022-12-11T01:25:13;-1.00;12.80
336;DHT22;156;48.738;9.228;2022-12-11T01:27:40;-0.90;11.00
336;DHT22;156;48.738;9.228;2022-12-11T01:30:13;-0.80;9.50
336;DHT22;156;48.738;9.228;2022-12-11T01:32:41;-0.70;4.80
336;DHT22;156;48.738;9.228;2022-12-11T01:35:09;-0.80;3.30
336;DHT22;156;48.738;9.228;2022-12-11T01:37:37;-0.90;1.00
336;DHT22;156;48.738;9.228;2022-12-11T01:40:05;-1.20;1.30
336;DHT22;156;48.738;9.228;2022-12-11T01:42:33;-1.30;3.10
336;DHT22;156;48.738;9.228;2022-12-11T01:45:23;-1.30;6.90
336;DHT22;156;48.738;9.228;2022-12-11T01:47:55;-1.10;8.20
336;DHT22;156;48.738;9.228;2022-12-11T01:50:25;-1.00;9.20
336;DHT22;156;48.738;9.228;2022-12-11T01:52:53;-0.90;2.30
336;DHT22;156;48.738;9.228;2022-12-11T01:55:20;-0.90;1.00
336;DHT22;156;48.738;9.228;2022-12-11T01:57:48;-1.10;1.00
336;DHT22;156;48.738;9.228;2022-12-11T02:00:17;-1.20;5.00
336;DHT22;156;48.738;9.228;2022-12-11T02:02:45;-1.20;6.60
336;DHT22;156;48.738;9.228;2022-12-11T02:05:13;-1.10;7.40
336;DHT22;156;48.738;9.228;2022-12-11T02:07:43;-1.20;7.30
336;DHT22;156;48.738;9.228;2022-12-11T02:10:11;-1.20;8.90
336;DHT22;156;48.738;9.228;2022-12-11T02:12:44;-1.20;11.40
336;DHT22;156;48.738;9.228;2022-12-11T02:15:22;-1.20;11.40
336;DHT22;156;48.738;9.228;2022-12-11T02:17:55;-1.20;11.50
336;DHT22;156;48.738;9.228;2022-12-11T02:20:30;-1.20;9.80
336;DHT22;156;48.738;9.228;2022-12-11T02:25:55;-1.10;12.50
336;DHT22;156;48.738;9.228;2022-12-11T02:28:27;-1.10;7.70
336;DHT22;156;48.738;9.228;2022-12-11T02:30:58;-1.10;9.40
336;DHT22;156;48.738;9.228;2022-12-11T02:33:34;-1.10;8.90
336;DHT22;156;48.738;9.228;2022-12-11T02:36:04;-1.00;7.50
336;DHT22;156;48.738;9.228;2022-12-11T02:38:35;-1.00;5.00
336;DHT22;156;48.738;9.228;2022-12-11T02:41:04;-1.00;3.20
336;DHT22;156;48.738;9.228;2022-12-11T02:43:36;-1.10;1.00
336;DHT22;156;48.738;9.228;2022-12-11T02:46:06;-1.10;3.20
336;DHT22;156;48.738;9.228;2022-12-11T02:48:34;-1.20;5.10
336;DHT22;156;48.738;9.228;2022-12-11T02:51:04;-1.30;8.50
336;DHT22;156;48.738;9.228;2022-12-11T02:53:35;-1.20;10.80
336;DHT22;156;48.738;9.228;2022-12-11T02:56:08;-1.20;10.50
336;DHT22;156;48.738;9.228;2022-12-11T02:58:41;-1.20;11.40
336;DHT22;156;48.738;9.228;2022-12-11T03:01:09;-1.20;12.10
336;DHT22;156;48.738;9.228;2022-12-11T03:03:36;-1.20;11.30
336;DHT22;156;48.738;9.228;2022-12-11T03:06:05;-1.20;9.80
336;DHT22;156;48.738;9.228;2022-12-11T03:08:32;-1.10;11.40
336;DHT22;156;48.738;9.228;2022-12-11T03:10:59;-1.10;10.60
336;DHT22;156;48.738;9.228;2022-12-11T03:13:26;-1.00;7.40
336;DHT22;156;48.738;9.228;2022-12-11T03:16:03;-0.90;4.70
336;DHT22;156;48.738;9.228;2022-12-11T03:18:35;-0.80;1.00
336;DHT22;156;48.738;9.228;2022-12-11T03:21:08;-0.80;1.00
336;DHT22;156;48.738;9.228;2022-12-11T03:23:43;-0.90;1.00
336;DHT22;156;48.738;9.228;2022-12-11T03:26:14;-0.80;1.00
336;DHT22;156;48.738;9.228;2022-12-11T03:28:46;-0.80;1.00
336;DHT22;156;48.738;9.228;2022-12-11T03:31:20;-0.70;1.00
336;DHT22;156;48.738;9.228;2022-12-11T03:33:50;-0.70;1.00
336;DHT22;156;48.738;9.228;2022-12-11T03:36:23;-0.90;1.00
336;DHT22;156;48.738;9.228;2022-12-11T03:38:54;-1.00;1.00
336;DHT22;156;48.738;9.228;2022-12-11T03:41:24;-0.90;1.00
336;DHT22;156;48.738;9.228;2022-12-11T03:43:54;-1.00;1.00
336;DHT22;156;48.738;9.228;2022-12-11T03:46:27;-1.00;1.00
336;DHT22;156;48.738;9.228;2022-12-11T03:48:58;-1.00;1.00
336;DHT22;156;48.738;9.228;2022-12-11T03:51:28;-1.00;1.00
336;DHT22;156;48.738;9.228;2022-12-11T03:53:57;-1.00;1.00
336;DHT22;156;48.738;9.228;2022-12-11T03:56:28;-1.00;1.00
336;DHT22;156;48.738;9.228;2022-12-11T03:58:55;-1.00;1.00
336;DHT22;156;48.738;9.228;2022-12-11T04:01:24;-1.00;1.00
336;DHT22;156;48.738;9.228;2022-12-11T04:06:17;-1.40;1.00
336;DHT22;156;48.738;9.228;2022-12-11T04:08:44;-1.10;1.00
336;DHT22;156;48.738;9.228;2022-12-11T04:11:11;-1.10;1.00
336;DHT22;156;48.738;9.228;2022-12-11T04:13:55;-1.20;1.00
336;DHT22;156;48.738;9.228;2022-12-11T04:16:41;-1.10;1.00
336;DHT22;156;48.738;9.228;2022-12-11T04:19:08;-1.10;1.00
336;DHT22;156;48.738;9.228;2022-12-11T04:21:53;-1.20;1.00
336;DHT22;156;48.738;9.228;2022-12-11T04:24:37;-1.20;1.00
336;DHT22;156;48.738;9.228;2022-12-11T04:27:04;-1.10;1.00
336;DHT22;156;48.738;9.228;2022-12-11T04:29:32;-1.20;1.00
336;DHT22;156;48.738;9.228;2022-12-11T04:32:00;-1.40;1.00
336;DHT22;156;48.738;9.228;2022-12-11T04:34:27;-1.60;7.00
336;DHT22;156;48.738;9.228;2022-12-11T04:36:54;-1.60;9.60
336;DHT22;156;48.738;9.228;2022-12-11T04:39:21;-1.60;11.20
336;DHT22;156;48.738;9.228;2022-12-11T04:41:47;-1.50;12.80
336;DHT22;156;48.738;9.228;2022-12-11T04:44:14;-1.40;13.00
336;DHT22;156;48.738;9.228;2022-12-11T04:46:41;-1.40;10.10
336;DHT22;156;48.738;9.228;2022-12-11T04:49:12;-1.60;4.70
336;DHT22;156;48.738;9.228;2022-12-11T04:51:39;-1.60;7.40
336;DHT22;156;48.738;9.228;2022-12-11T04:54:06;-1.70;9.40
336;DHT22;156;48.738;9.228;2022-12-11T04:56:33;-1.70;7.00
336;DHT22;156;48.738;9.228;2022-12-11T04:59:00;-1.70;7.00
336;DHT22;156;48.738;9.228;2022-12-11T05:01:27;-1.70;7.00
336;DHT22;156;48.738;9.228;2022-12-11T05:03:54;-1.80;4.80
336;DHT22;156;48.738;9.228;2022-12-11T05:06:22;-1.90;6.70
336;DHT22;156;48.738;9.228;2022-12-11T05:08:49;-1.90;8.50
336;DHT22;156;48.738;9.228;2022-12-11T05:11:16;-1.90;9.30
336;DHT22;156;48.738;9.228;2022-12-11T05:13:43;-2.00;10.90
336;DHT22;156;48.738;9.228;2022-12-11T05:16:12;-2.00;9.70
336;DHT22;156;48.738;9.228;2022-12-11T05:18:39;-2.10;13.30
336;DHT22;156;48.738;9.228;2022-12-11T05:21:08;-2.10;14.40
336;DHT22;156;48.738;9.228;2022-12-11T05:23:37;-2.10;14.60
336;DHT22;156;48.738;9.228;2022-12-11T05:26:06;-2.10;14.80
336;DHT22;156;48.738;9.228;2022-12-11T05:28:35;-2.00;16.40
336;DHT22;156;48.738;9.228;2022-12-11T05:31:05;-2.00;13.20
336;DHT22;156;48.738;9.228;2022-12-11T05:33:32;-1.90;10.60
336;DHT22;156;48.738;9.228;2022-12-11T05:35:59;-2.10;11.80
336;DHT22;156;48.738;9.228;2022-12-11T05:38:26;-2.00;13.70
336;DHT22;156;48.738;9.228;2022-12-11T05:40:58;-2.10;13.30
336;DHT22;156;48.738;9.228;2022-12-11T05:43:26;-2.20;14.70
336;DHT22;156;48.738;9.228;2022-12-11T05:45:54;-2.30;17.60
336;DHT22;156;48.738;9.228;2022-12-11T05:48:21;-2.30;18.10
336;DHT22;156;48.738;9.228;2022-12-11T05:50:57;-2.40;17.70
336;DHT22;156;48.738;9.228;2022-12-11T05:53:25;-2.30;17.60
336;DHT22;156;48.738;9.228;2022-12-11T05:55:52;-2.30;16.00
336;DHT22;156;48.738;9.228;2022-12-11T05:58:20;-2.20;15.50
336;DHT22;156;48.738;9.228;2022-12-11T06:00:47;-2.20;14.00
336;DHT22;156;48.738;9.228;2022-12-11T06:03:14;-2.20;11.20
336;DHT22;156;48.738;9.228;2022-12-11T06:05:41;-2.30;10.60
336;DHT22;156;48.738;9.228;2022-12-11T06:08:08;-2.40;11.60
336;DHT22;156;48.738;9.228;2022-12-11T06:10:35;-2.60;12.80
336;DHT22;156;48.738;9.228;2022-12-11T06:13:02;-2.70;15.50
336;DHT22;156;48.738;9.228;2022-12-11T06:15:31;-2.70;18.80
336;DHT22;156;48.738;9.228;2022-12-11T06:17:58;-2.80;21.20
336;DHT22;156;48.738;9.228;2022-12-11T06:20:25;-2.80;22.20
336;DHT22;156;48.738;9.228;2022-12-11T06:22:52;-2.70;23.60
336;DHT22;156;48.738;9.228;2022-12-11T06:25:19;-2.60;22.50
336;DHT22;156;48.738;9.228;2022-12-11T06:27:45;-2.60;22.20
336;DHT22;156;48.738;9.228;2022-12-11T06:30:13;-2.60;21.50
336;DHT22;156;48.738;9.228;2022-12-11T06:32:42;-2.60;23.90
336;DHT22;156;48.738;9.228;2022-12-11T06:35:10;-2.60;20.10
336;DHT22;156;48.738;9.228;2022-12-11T06:37:38;-2.60;21.40
336;DHT22;156;48.738;9.228;2022-12-11T06:40:07;-2.60;21.40
336;DHT22;156;48.738;9.228;2022-12-11T06:42:34;-2.60;22.20
336;DHT22;156;48.738;9.228;2022-12-11T06:45:01;-2.40;19.30
336;DHT22;156;48.738;9.228;2022-12-11T06:47:29;-2.40;14.40
336;DHT22;156;48.738;9.228;2022-12-11T06:49:57;-2.40;12.60
336;DHT22;156;48.738;9.228;2022-12-11T06:52:25;-2.40;10.70
336;DHT22;156;48.738;9.228;2022-12-11T06:54:53;-2.40;11.60
336;DHT22;156;48.738;9.228;2022-12-11T06:57:20;-2.40;12.50
336;DHT22;156;48.738;9.228;2022-12-11T06:59:47;-2.30;13.20
336;DHT22;156;48.738;9.228;2022-12-11T07:02:15;-2.30;10.00
336;DHT22;156;48.738;9.228;2022-12-11T07:04:42;-2.30;13.80
336;DHT22;156;48.738;9.228;2022-12-11T07:07:10;-2.30;14.80
336;DHT22;156;48.738;9.228;2022-12-11T07:09:38;-2.30;15.40
336;DHT22;156;48.738;9.228;2022-12-11T07:12:06;-2.30;16.00
336;DHT22;156;48.738;9.228;2022-12-11T07:14:33;-2.30;13.50
336;DHT22;156;48.738;9.228;2022-12-11T07:17:00;-2.30;13.30
336;DHT22;156;48.738;9.228;2022-12-11T07:19:27;-2.30;10.70
336;DHT22;156;48.738;9.228;2022-12-11T07:21:53;-2.40;11.90
336;DHT22;156;48.738;9.228;2022-12-11T07:24:22;-2.50;14.50
336;DHT22;156;48.738;9.228;2022-12-11T07:26:49;-2.50;16.50
336;DHT22;156;48.738;9.228;2022-12-11T07:29:18;-2.60;18.60
336;DHT22;156;48.738;9.228;2022-12-11T07:31:45;-2.60;22.30
336;DHT22;156;48.738;9.228;2022-12-11T07:34:12;-2.50;22.40
336;DHT22;156;48.738;9.228;2022-12-11T07:36:40;-2.50;24.50
336;DHT22;156;48.738;9.228;2022-12-11T07:39:06;-2.50;26.20
336;DHT22;156;48.738;9.228;2022-12-11T07:41:35;-2.40;26.40
336;DHT22;156;48.738;9.228;2022-12-11T07:44:03;-2.20;27.20
336;DHT22;156;48.738;9.228;2022-12-11T07:46:31;-2.20;26.90
336;DHT22;156;48.738;9.228;2022-12-11T07:48:59;-2.00;26.80
336;DHT22;156;48.738;9.228;2022-12-11T07:51:28;-2.00;25.00
336;DHT22;156;48.738;9.228;2022-12-11T07:53:58;-2.00;22.70
336;DHT22;156;48.738;9.228;2022-12-11T07:56:26;-2.10;21.50
336;DHT22;156;48.738;9.228;2022-12-11T07:58:55;-2.10;19.40
336;DHT22;156;48.738;9.228;2022-12-11T08:01:26;-2.10;18.70
336;DHT22;156;48.738;9.228;2022-12-11T08:03:53;-1.90;17.70
336;DHT22;156;48.738;9.228;2022-12-11T08:06:25;-2.00;15.80
336;DHT22;156;48.738;9.228;2022-12-11T08:08:52;-2.00;14.90
336;DHT22;156;48.738;9.228;2022-12-11T08:11:19;-2.00;15.50
336;DHT22;156;48.738;9.228;2022-12-11T08:13:46;-2.00;15.60
336;DHT22;156;48.738;9.228;2022-12-11T08:16:15;-2.00;16.20
336;DHT22;156;48.738;9.228;2022-12-11T08:18:43;-1.90;16.60
336;DHT22;156;48.738;9.228;2022-12-11T08:21:12;-1.90;17.50
336;DHT22;156;48.738;9.228;2022-12-11T08:23:39;-1.90;16.60
336;DHT22;156;48.738;9.228;2022-12-11T08:26:08;-1.80;16.30
336;DHT22;156;48.738;9.228;2022-12-11T08:28:35;-1.80;14.50
336;DHT22;156;48.738;9.228;2022-12-11T08:31:03;-1.70;12.50
336;DHT22;156;48.738;9.228;2022-12-11T08:33:31;-1.70;10.60
336;DHT22;156;48.738;9.228;2022-12-11T08:36:01;-1.50;10.60
336;DHT22;156;48.738;9.228;2022-12-11T08:38:28;-1.30;9.80
336;DHT22;156;48.738;9.228;2022-12-11T08:40:55;-1.00;4.30
336;DHT22;156;48.738;9.228;2022-12-11T08:43:22;-0.80;1.40
336;DHT22;156;48.738;9.228;2022-12-11T08:45:49;-0.60;1.00
336;DHT22;156;48.738;9.228;2022-12-11T08:48:16;-0.50;1.00
336;DHT22;156;48.738;9.228;2022-12-11T08:50:44;-0.50;1.00
336;DHT22;156;48.738;9.228;2022-12-11T08:53:11;-0.40;1.00
336;DHT22;156;48.738;9.228;2022-12-11T08:55:38;-0.30;1.00
336;DHT22;156;48.738;9.228;2022-12-11T08:58:05;-0.20;1.00
336;DHT22;156;48.738;9.228;2022-12-11T09:00:32;-0.30;1.00
336;DHT22;156;48.738;9.228;2022-12-11T09:02:59;-0.20;1.00
336;DHT22;156;48.738;9.228;2022-12-11T09:05:26;-0.20;1.00
336;DHT22;156;48.738;9.228;2022-12-11T09:07:54;-0.20;1.00
336;DHT22;156;48.738;9.228;2022-12-11T09:10:21;-0.10;1.00
336;DHT22;156;48.738;9.228;2022-12-11T09:12:48;-0.10;1.00
336;DHT22;156;48.738;9.228;2022-12-11T09:15:15;-0.10;1.00
336;DHT22;156;48.738;9.228;2022-12-11T09:17:42;-0.20;1.00
336;DHT22;156;48.738;9.228;2022-12-11T09:20:10;-0.30;1.00
336;DHT22;156;48.738;9.228;2022-12-11T09:22:37;-0.50;1.00
336;DHT22;156;48.738;9.228;2022-12-11T09:25:07;-0.50;1.00
336;DHT22;156;48.738;9.228;2022-12-11T09:27:34;-0.40;1.00
336;DHT22;156;48.738;9.228;2022-12-11T09:30:01;-0.50;1.00
336;DHT22;156;48.738;9.228;2022-12-11T09:32:28;-0.60;1.00
336;DHT22;156;48.738;9.228;2022-12-11T09:34:56;-0.60;1.00
336;DHT22;156;48.738;9.228;2022-12-11T09:37:23;-0.60;1.00
336;DHT22;156;48.738;9.228;2022-12-11T09:39:49;-0.50;1.00
336;DHT22;156;48.738;9.228;2022-12-11T09:42:22;-0.50;1.00
336;DHT22;156;48.738;9.228;2022-12-11T09:44:53;-0.50;1.00
336;DHT22;156;48.738;9.228;2022-12-11T09:47:33;-0.50;1.00
336;DHT22;156;48.738;9.228;2022-12-11T09:50:05;-0.50;1.00
336;DHT22;156;48.738;9.228;2022-12-11T09:52:39;-0.50;1.00
336;DHT22;156;48.738;9.228;2022-12-11T09:55:14;-0.50;1.00
336;DHT22;156;48.738;9.228;2022-12-11T09:57:47;-0.50;1.00
336;DHT22;156;48.738;9.228;2022-12-11T10:00:21;-0.40;1.00
336;DHT22;156;48.738;9.228;2022-12-11T10:05:49;-0.30;1.00
336;DHT22;156;48.738;9.228;2022-12-11T10:08:22;-0.30;1.00
336;DHT22;156;48.738;9.228;2022-12-11T10:10:56;-0.40;1.00
336;DHT22;156;48.738;9.228;2022-12-11T10:13:34;-0.30;1.00
336;DHT22;156;48.738;9.228;2022-12-11T10:16:11;-0.20;1.00
336;DHT22;156;48.738;9.228;2022-12-11T10:18:43;-0.10;1.00
336;DHT22;156;48.738;9.228;2022-12-11T10:21:11;-0.10;1.00
336;DHT22;156;48.738;9.228;2022-12-11T10:23:43;0.00;1.00
336;DHT22;156;48.738;9.228;2022-12-11T10:26:15;0.00;1.00
336;DHT22;156;48.738;9.228;2022-12-11T10:28:44;0.00;1.00
336;DHT22;156;48.738;9.228;2022-12-11T10:31:15;0.10;1.00
336;DHT22;156;48.738;9.228;2022-12-11T10:33:52;0.10;1.00
336;DHT22;156;48.738;9.228;2022-12-11T10:36:26;0.20;1.00
336;DHT22;156;48.738;9.228;2022-12-11T10:38:54;0.20;1.00
336;DHT22;156;48.738;9.228;2022-12-11T10:41:23;0.30;1.00
336;DHT22;156;48.738;9.228;2022-12-11T10:43:52;0.30;1.00
336;DHT22;156;48.738;9.228;2022-12-11T10:46:21;0.30;1.00
336;DHT22;156;48.738;9.228;2022-12-11T10:48:50;0.30;1.00
336;DHT22;156;48.738;9.228;2022-12-11T10:51:19;0.20;1.00
336;DHT22;156;48.738;9.228;2022-12-11T10:53:49;0.20;1.00
336;DHT22;156;48.738;9.228;2022-12-11T10:56:24;0.30;1.00
336;DHT22;156;48.738;9.228;2022-12-11T10:58:54;0.30;1.00
336;DHT22;156;48.738;9.228;2022-12-11T11:01:23;0.30;1.00
336;DHT22;156;48.738;9.228;2022-12-11T11:03:54;0.10;1.00
336;DHT22;156;48.738;9.228;2022-12-11T11:06:23;0.10;1.00
336;DHT22;156;48.738;9.228;2022-12-11T11:08:52;0.10;1.00
336;DHT22;156;48.738;9.228;2022-12-11T11:11:25;0.00;1.00
336;DHT22;156;48.738;9.228;2022-12-11T11:14:05;0.10;1.00
336;DHT22;156;48.738;9.228;2022-12-11T11:16:35;0.20;1.00
336;DHT22;156;48.738;9.228;2022-12-11T11:19:03;0.30;1.00
336;DHT22;156;48.738;9.228;2022-12-11T11:21:34;0.30;1.00
336;DHT22;156;48.738;9.228;2022-12-11T11:24:02;0.30;1.00
336;DHT22;156;48.738;9.228;2022-12-11T11:26:32;0.30;1.00
336;DHT22;156;48.738;9.228;2022-12-11T11:28:59;0.30;1.00
336;DHT22;156;48.738;9.228;2022-12-11T11:31:32;0.40;1.00
336;DHT22;156;48.738;9.228;2022-12-11T11:34:04;0.30;1.00
336;DHT22;156;48.738;9.228;2022-12-11T11:36:34;0.30;1.00
336;DHT22;156;48.738;9.228;2022-12-11T11:39:17;0.40;1.00
336;DHT22;156;48.738;9.228;2022-12-11T11:41:50;0.40;1.00
336;DHT22;156;48.738;9.228;2022-12-11T11:44:22;0.40;1.00
336;DHT22;156;48.738;9.228;2022-12-11T11:46:56;0.40;1.00
336;DHT22;156;48.738;9.228;2022-12-11T11:49:30;0.40;1.00
336;DHT22;156;48.738;9.228;2022-12-11T11:52:10;0.50;1.00
336;DHT22;156;48.738;9.228;2022-12-11T11:54:42;0.60;1.00
336;DHT22;156;48.738;9.228;2022-12-11T11:57:14;0.60;1.00
336;DHT22;156;48.738;9.228;2022-12-11T11:59:46;0.60;1.00
336;DHT22;156;48.738;9.228;2022-12-11T12:02:17;0.70;1.00
336;DHT22;156;48.738;9.228;2022-12-11T12:04:45;0.80;1.00
336;DHT22;156;48.738;9.228;2022-12-11T12:07:23;0.90;1.00
336;DHT22;156;48.738;9.228;2022-12-11T12:09:56;0.80;1.00
336;DHT22;156;48.738;9.228;2022-12-11T12:12:38;0.90;1.00
336;DHT22;156;48.738;9.228;2022-12-11T12:15:20;1.00;1.00
336;DHT22;156;48.738;9.228;2022-12-11T12:17:52;1.00;1.00
336;DHT22;156;48.738;9.228;2022-12-11T12:20:28;1.00;1.00
336;DHT22;156;48.738;9.228;2022-12-11T12:23:27;0.90;1.00
336;DHT22;156;48.738;9.228;2022-12-11T12:26:02;0.80;1.00
336;DHT22;156;48.738;9.228;2022-12-11T12:28:38;0.70;1.00
336;DHT22;156;48.738;9.228;2022-12-11T12:31:17;0.70;1.00
336;DHT22;156;48.738;9.228;2022-12-11T12:33:59;0.70;1.00
336;DHT22;156;48.738;9.228;2022-12-11T12:36:33;0.60;1.00
336;DHT22;156;48.738;9.228;2022-12-11T12:39:10;0.70;1.00
336;DHT22;156;48.738;9.228;2022-12-11T12:41:44;0.70;1.00
336;DHT22;156;48.738;9.228;2022-12-11T12:44:17;0.60;1.00
336;DHT22;156;48.738;9.228;2022-12-11T12:46:53;0.60;1.00
336;DHT22;156;48.738;9.228;2022-12-11T12:49:29;0.60;1.00
336;DHT22;156;48.738;9.228;2022-12-11T12:51:59;0.60;1.00
336;DHT22;156;48.738;9.228;2022-12-11T12:54:27;0.60;1.00
336;DHT22;156;48.738;9.228;2022-12-11T12:56:55;0.50;1.00
336;DHT22;156;48.738;9.228;2022-12-11T12:59:24;0.50;1.00
336;DHT22;156;48.738;9.228;2022-12-11T13:01:54;0.60;1.00
336;DHT22;156;48.738;9.228;2022-12-11T13:04:35;0.60;1.00
336;DHT22;156;48.738;9.228;2022-12-11T13:07:18;0.70;1.00
336;DHT22;156;48.738;9.228;2022-12-11T13:10:03;0.70;1.00
336;DHT22;156;48.738;9.228;2022-12-11T13:12:40;0.80;1.00
336;DHT22;156;48.738;9.228;2022-12-11T13:15:38;0.80;1.00
336;DHT22;156;48.738;9.228;2022-12-11T13:18:29;0.90;1.00
336;DHT22;156;48.738;9.228;2022-12-11T13:20:58;1.10;1.00
336;DHT22;156;48.738;9.228;2022-12-11T13:23:27;1.30;1.00
336;DHT22;156;48.738;9.228;2022-12-11T13:25:56;1.30;1.00
336;DHT22;156;48.738;9.228;2022-12-11T13:28:32;1.40;1.00
336;DHT22;156;48.738;9.228;2022-12-11T13:31:05;1.60;1.00
336;DHT22;156;48.738;9.228;2022-12-11T13:33:40;2.10;1.00
336;DHT22;156;48.738;9.228;2022-12-11T13:36:27;2.60;1.00
336;DHT22;156;48.738;9.228;2022-12-11T13:38:59;2.80;1.00
336;DHT22;156;48.738;9.228;2022-12-11T13:41:28;3.00;1.00
336;DHT22;156;48.738;9.228;2022-12-11T13:43:57;3.30;1.00
336;DHT22;156;48.738;9.228;2022-12-11T13:46:26;2.70;1.00
336;DHT22;156;48.738;9.228;2022-12-11T13:48:56;2.40;1.00
336;DHT22;156;48.738;9.228;2022-12-11T13:51:28;2.20;1.00
336;DHT22;156;48.738;9.228;2022-12-11T13:54:03;1.70;1.00
336;DHT22;156;48.738;9.228;2022-12-11T13:56:30;1.50;1.00
336;DHT22;156;48.738;9.228;2022-12-11T13:58:57;1.00;1.00
336;DHT22;156;48.738;9.228;2022-12-11T14:01:26;0.60;1.00
336;DHT22;156;48.738;9.228;2022-12-11T14:03:55;0.20;1.00
336;DHT22;156;48.738;9.228;2022-12-11T14:06:23;-0.10;1.00
336;DHT22;156;48.738;9.228;2022-12-11T14:08:53;-0.40;1.00
336;DHT22;156;48.738;9.228;2022-12-11T14:11:23;-0.50;1.00
336;DHT22;156;48.738;9.228;2022-12-11T14:13:53;-0.40;1.00
336;DHT22;156;48.738;9.228;2022-12-11T14:16:22;-0.60;1.00
336;DHT22;156;48.738;9.228;2022-12-11T14:18:49;-0.70;1.00
336;DHT22;156;48.738;9.228;2022-12-11T14:21:19;-0.70;1.00
336;DHT22;156;48.738;9.228;2022-12-11T14:23:52;-0.70;1.00
336;DHT22;156;48.738;9.228;2022-12-11T14:26:21;-0.80;2.90
336;DHT22;156;48.738;9.228;2022-12-11T14:28:49;-0.80;4.60
336;DHT22;156;48.738;9.228;2022-12-11T14:31:23;-0.90;6.60
336;DHT22;156;48.738;9.228;2022-12-11T14:33:53;-0.90;7.50
336;DHT22;156;48.738;9.228;2022-12-11T14:36:22;-0.90;8.80
336;DHT22;156;48.738;9.228;2022-12-11T14:38:53;-0.90;11.60
336;DHT22;156;48.738;9.228;2022-12-11T14:41:24;-1.00;15.50
336;DHT22;156;48.738;9.228;2022-12-11T14:43:56;-1.00;18.70
336;DHT22;156;48.738;9.228;2022-12-11T14:46:30;-1.00;20.90
336;DHT22;156;48.738;9.228;2022-12-11T14:49:02;-1.00;24.70
336;DHT22;156;48.738;9.228;2022-12-11T14:51:36;-1.10;28.00
336;DHT22;156;48.738;9.228;2022-12-11T14:54:07;-1.20;30.00
336;DHT22;156;48.738;9.228;2022-12-11T14:56:43;-1.30;30.80
336;DHT22;156;48.738;9.228;2022-12-11T14:59:18;-1.30;30.90
336;DHT22;156;48.738;9.228;2022-12-11T15:01:57;-1.30;33.80
336;DHT22;156;48.738;9.228;2022-12-11T15:04:27;-1.40;33.60
336;DHT22;156;48.738;9.228;2022-12-11T15:06:54;-1.40;34.90
336;DHT22;156;48.738;9.228;2022-12-11T15:09:27;-1.40;34.50
336;DHT22;156;48.738;9.228;2022-12-11T15:11:56;-1.40;35.20
336;DHT22;156;48.738;9.228;2022-12-11T15:14:25;-1.50;34.10
336;DHT22;156;48.738;9.228;2022-12-11T15:16:54;-1.50;34.10
336;DHT22;156;48.738;9.228;2022-12-11T15:19:24;-1.50;35.10
336;DHT22;156;48.738;9.228;2022-12-11T15:21:52;-1.50;34.70
336;DHT22;156;48.738;9.228;2022-12-11T15:24:23;-1.50;35.10
336;DHT22;156;48.738;9.228;2022-12-11T15:26:56;-1.60;35.10
336;DHT22;156;48.738;9.228;2022-12-11T15:29:29;-1.60;35.30
336;DHT22;156;48.738;9.228;2022-12-11T15:32:16;-1.60;35.40
336;DHT22;156;48.738;9.228;2022-12-11T15:34:45;-1.60;36.40
336;DHT22;156;48.738;9.228;2022-12-11T15:37:20;-1.60;36.80
336;DHT22;156;48.738;9.228;2022-12-11T15:39:47;-1.70;38.00
336;DHT22;156;48.738;9.228;2022-12-11T15:42:22;-1.70;39.50
336;DHT22;156;48.738;9.228;2022-12-11T15:44:50;-1.70;39.30
336;DHT22;156;48.738;9.228;2022-12-11T15:47:20;-1.70;39.40
336;DHT22;156;48.738;9.228;2022-12-11T15:49:47;-1.70;40.20
336;DHT22;156;48.738;9.228;2022-12-11T15:52:14;-1.80;40.00
336;DHT22;156;48.738;9.228;2022-12-11T15:54:41;-1.70;40.10
336;DHT22;156;48.738;9.228;2022-12-11T15:57:12;-1.80;40.10
336;DHT22;156;48.738;9.228;2022-12-11T15:59:43;-1.80;41.00
336;DHT22;156;48.738;9.228;2022-12-11T16:02:11;-1.80;40.90
336;DHT22;156;48.738;9.228;2022-12-11T16:04:38;-1.80;42.00
336;DHT22;156;48.738;9.228;2022-12-11T16:07:08;-1.90;42.10
336;DHT22;156;48.738;9.228;2022-12-11T16:09:38;-1.80;43.70
336;DHT22;156;48.738;9.228;2022-12-11T16:12:05;-1.80;44.70
336;DHT22;156;48.738;9.228;2022-12-11T16:14:32;-1.90;45.30
336;DHT22;156;48.738;9.228;2022-12-11T16:17:04;-1.80;46.60
336;DHT22;156;48.738;9.228;2022-12-11T16:19:30;-1.80;47.10
336;DHT22;156;48.738;9.228;2022-12-11T16:21:57;-1.80;45.50
336;DHT22;156;48.738;9.228;2022-12-11T16:24:24;-1.70;44.80
336;DHT22;156;48.738;9.228;2022-12-11T16:26:51;-1.70;44.50
336;DHT22;156;48.738;9.228;2022-12-11T16:29:18;-1.70;42.90
336;DHT22;156;48.738;9.228;2022-12-11T16:31:45;-1.70;40.40
336;DHT22;156;48.738;9.228;2022-12-11T16:34:13;-1.70;40.90
336;DHT22;156;48.738;9.228;2022-12-11T16:36:40;-1.70;40.60
336;DHT22;156;48.738;9.228;2022-12-11T16:39:09;-1.70;40.30
336;DHT22;156;48.738;9.228;2022-12-11T16:41:36;-1.70;40.90
336;DHT22;156;48.738;9.228;2022-12-11T16:44:04;-1.80;43.30
336;DHT22;156;48.738;9.228;2022-12-11T16:46:31;-1.70;44.80
336;DHT22;156;48.738;9.228;2022-12-11T16:48:58;-1.70;47.00
336;DHT22;156;48.738;9.228;2022-12-11T16:51:26;-1.70;49.00
336;DHT22;156;48.738;9.228;2022-12-11T16:53:54;-1.70;50.30
336;DHT22;156;48.738;9.228;2022-12-11T16:56:20;-1.20;52.20
336;DHT22;156;48.738;9.228;2022-12-11T16:58:47;-1.70;53.60
336;DHT22;156;48.738;9.228;2022-12-11T17:01:14;-1.70;54.00
336;DHT22;156;48.738;9.228;2022-12-11T17:03:42;-1.60;56.70
336;DHT22;156;48.738;9.228;2022-12-11T17:06:11;-1.60;55.50
336;DHT22;156;48.738;9.228;2022-12-11T17:08:40;-1.50;57.10
336;DHT22;156;48.738;9.228;2022-12-11T17:11:08;-1.40;58.90
336;DHT22;156;48.738;9.228;2022-12-11T17:13:36;-1.30;58.70